Time;durP1;ratioP1;P1;durP2;ratioP2;P2;SDS_P1;SDS_P2;PMS_P1;PMS_P2;Temp;Humidity;BMP_temperature;BMP_pressure;BME280_temperature;BME280_humidity;BME280_pressure;Samples;Min_cycle;Max_cycle;Signal;HPM_P1;HPM_P2
2021/05/28 00:00:21;;;;;;;11.17;10.37;;;10.20;92.20;;;;;;4974084;28;20221;-87
2021/05/28 00:02:47;;;;;;;11.60;10.50;;;10.30;92.20;;;;;;4973938;28;20285;-87
2021/05/28 00:05:13;;;;;;;13.27;11.77;;;10.40;92.70;;;;;;4972751;28;20175;-89
2021/05/28 00:07:38;;;;;;;11.23;10.23;;;10.30;92.10;;;;;;4973762;28;20182;-87
2021/05/28 00:10:05;;;;;;;11.73;10.83;;;10.40;92.00;;;;;;4974202;28;20409;-87
2021/05/28 00:12:30;;;;;;;13.07;11.77;;;10.40;91.90;;;;;;4977743;28;20170;-87
2021/05/28 00:14:56;;;;;;;13.33;12.03;;;10.30;92.00;;;;;;4977684;28;20428;-88
2021/05/28 00:17:21;;;;;;;11.60;9.93;;;10.40;91.90;;;;;;4977851;28;20170;-87
2021/05/28 00:19:47;;;;;;;10.27;9.57;;;10.40;91.90;;;;;;4977490;28;20685;-87
2021/05/28 00:22:13;;;;;;;8.63;8.13;;;10.50;91.30;;;;;;4976138;28;20628;-87
2021/05/28 00:24:38;;;;;;;10.07;9.10;;;10.60;90.50;;;;;;4977565;28;20224;-87
2021/05/28 00:27:04;;;;;;;8.83;8.23;;;10.50;90.30;;;;;;4977163;28;20628;-88
2021/05/28 00:29:30;;;;;;;9.83;8.83;;;10.50;90.30;;;;;;4977314;28;20181;-87
2021/05/28 00:31:55;;;;;;;10.73;9.90;;;10.40;90.60;;;;;;4977340;28;20490;-87
2021/05/28 00:34:21;;;;;;;10.07;9.13;;;10.20;90.90;;;;;;4977160;28;20170;-86
2021/05/28 00:36:46;;;;;;;10.53;9.53;;;10.20;91.20;;;;;;4977159;28;20170;-86
2021/05/28 00:39:12;;;;;;;10.97;10.17;;;10.20;91.20;;;;;;4975685;28;20182;-86
2021/05/28 00:41:37;;;;;;;8.83;8.23;;;10.20;91.30;;;;;;4977318;28;20193;-87
2021/05/28 00:44:05;;;;;;;9.50;8.60;;;10.30;90.90;;;;;;4975948;28;20382;-87
2021/05/28 00:46:30;;;;;;;9.13;8.43;;;10.30;90.10;;;;;;4959733;28;20177;-85
2021/05/28 00:48:56;;;;;;;10.40;9.67;;;10.10;89.30;;;;;;4977074;28;20417;-87
2021/05/28 00:51:22;;;;;;;12.43;11.23;;;10.10;90.00;;;;;;4977415;28;20701;-86
2021/05/28 00:53:48;;;;;;;15.17;13.80;;;9.80;90.70;;;;;;4976978;28;20177;-86
2021/05/28 00:56:16;;;;;;;15.23;13.60;;;9.70;91.20;;;;;;4976955;28;20490;-86
2021/05/28 00:58:42;;;;;;;17.00;15.05;;;9.60;91.30;;;;;;4977068;28;20181;-87
2021/05/28 01:01:08;;;;;;;21.00;15.17;;;9.50;91.80;;;;;;4976858;28;20674;-87
2021/05/28 01:03:35;;;;;;;20.00;15.75;;;9.10;91.50;;;;;;4977037;28;20924;-87
2021/05/28 01:06:00;;;;;;;17.17;15.25;;;9.40;92.00;;;;;;4976862;28;20182;-87
2021/05/28 01:08:26;;;;;;;16.43;14.47;;;9.50;91.70;;;;;;4977221;28;20217;-87
2021/05/28 01:10:51;;;;;;;21.47;16.50;;;10.50;92.00;;;;;;4977597;28;20170;-87
2021/05/28 01:13:17;;;;;;;22.07;15.80;;;9.40;91.90;;;;;;4984364;28;20166;-87
2021/05/28 01:15:43;;;;;;;13.90;12.50;;;9.20;92.20;;;;;;4992954;28;20170;-87
2021/05/28 01:18:09;;;;;;;17.20;13.50;;;9.50;91.80;;;;;;4988826;28;20269;-85
2021/05/28 01:20:35;;;;;;;16.75;13.82;;;9.50;91.50;;;;;;4976649;28;20626;-86
2021/05/28 01:23:02;;;;;;;15.23;13.77;;;9.40;91.70;;;;;;4976623;28;20185;-86
2021/05/28 01:25:28;;;;;;;31.42;14.45;;;8.90;91.20;;;;;;4976592;28;20257;-86
2021/05/28 01:27:54;;;;;;;36.75;18.52;;;9.30;92.00;;;;;;4976322;28;20705;-87
2021/05/28 01:30:21;;;;;;;29.27;16.52;;;9.20;92.10;;;;;;4976651;28;20699;-86
2021/05/28 01:32:47;;;;;;;25.38;13.25;;;9.30;91.80;;;;;;4962434;28;20192;-86
2021/05/28 01:35:14;;;;;;;24.40;12.97;;;9.20;91.90;;;;;;4986305;28;20293;-87
2021/05/28 01:37:41;;;;;;;24.77;11.90;;;9.30;91.40;;;;;;4995723;28;20155;-86
2021/05/28 01:40:08;;;;;;;21.10;11.82;;;9.30;91.30;;;;;;4975946;28;20180;-86
2021/05/28 01:42:35;;;;;;;36.03;11.10;;;9.20;91.60;;;;;;4978092;28;20225;-86
2021/05/28 01:45:02;;;;;;;33.75;9.48;;;9.20;91.60;;;;;;4981073;28;20267;-86
2021/05/28 01:47:27;;;;;;;26.00;10.88;;;9.30;91.40;;;;;;4978366;28;20181;-86
2021/05/28 01:49:53;;;;;;;29.77;11.77;;;9.30;91.00;;;;;;4977152;28;20169;-87
2021/05/28 01:52:21;;;;;;;30.10;12.27;;;9.10;91.20;;;;;;4976384;28;20162;-87
2021/05/28 01:54:46;;;;;;;40.30;12.35;;;9.00;91.40;;;;;;4976446;28;20505;-87
2021/05/28 01:57:12;;;;;;;18.33;11.13;;;9.00;91.80;;;;;;4976004;28;20229;-85
2021/05/28 01:59:38;;;;;;;14.67;10.90;;;9.00;91.70;;;;;;4976022;28;20213;-86
2021/05/28 02:02:05;;;;;;;18.92;13.38;;;8.90;91.70;;;;;;4975818;28;20464;-86
2021/05/28 02:04:31;;;;;;;20.80;12.40;;;8.80;92.00;;;;;;4976137;28;20676;-86
2021/05/28 02:06:57;;;;;;;19.20;13.32;;;8.90;92.30;;;;;;4958235;28;20229;-87
2021/05/28 02:09:23;;;;;;;14.77;13.57;;;8.90;92.10;;;;;;4975921;28;20174;-87
2021/05/28 02:11:48;;;;;;;14.73;13.33;;;8.90;92.00;;;;;;4974573;28;20182;-86
2021/05/28 02:14:15;;;;;;;21.30;18.43;;;8.90;91.70;;;;;;4975483;28;20543;-86
2021/05/28 02:16:40;;;;;;;16.50;14.70;;;8.80;91.70;;;;;;4975502;28;20170;-86
2021/05/28 02:19:08;;;;;;;15.23;13.93;;;8.90;91.20;;;;;;4975473;28;20261;-86
2021/05/28 02:21:34;;;;;;;15.40;13.27;;;8.80;91.00;;;;;;4975600;28;20467;-86
2021/05/28 02:24:00;;;;;;;16.45;14.70;;;8.60;91.20;;;;;;4974597;28;20178;-86
2021/05/28 02:26:25;;;;;;;18.20;15.10;;;8.60;91.50;;;;;;4973984;28;20169;-87
2021/05/28 02:28:51;;;;;;;19.80;16.67;;;8.60;91.50;;;;;;4985225;28;20647;-86
2021/05/28 02:31:16;;;;;;;20.30;15.83;;;8.40;91.60;;;;;;4975199;28;20174;-86
2021/05/28 02:33:42;;;;;;;27.10;17.80;;;9.50;92.60;;;;;;4974763;28;20232;-86
2021/05/28 02:36:08;;;;;;;25.47;17.23;;;8.30;92.10;;;;;;4975483;28;20174;-86
2021/05/28 02:38:34;;;;;;;23.23;18.58;;;8.30;92.20;;;;;;4974971;28;20611;-87
2021/05/28 02:41:00;;;;;;;29.13;19.47;;;8.30;92.20;;;;;;4975202;28;20292;-87
2021/05/28 02:43:26;;;;;;;163.10;22.75;;;8.20;92.40;;;;;;4975030;28;20174;-86
2021/05/28 02:45:52;;;;;;;99.47;19.33;;;7.90;92.70;;;;;;4975074;28;20217;-87
2021/05/28 02:48:19;;;;;;;62.80;16.70;;;8.30;92.80;;;;;;4975032;28;20174;-87
2021/05/28 02:50:46;;;;;;;93.15;17.10;;;8.40;92.80;;;;;;4974890;28;20174;-87
2021/05/28 02:53:11;;;;;;;106.47;16.05;;;8.50;92.40;;;;;;4974874;28;20261;-86
2021/05/28 02:55:38;;;;;;;47.90;13.83;;;8.50;92.00;;;;;;4973629;28;20253;-87
2021/05/28 02:58:04;;;;;;;39.70;11.43;;;8.50;92.00;;;;;;4974908;28;20180;-86
2021/05/28 03:00:30;;;;;;;16.70;12.00;;;8.60;91.90;;;;;;4974915;28;20170;-86
2021/05/28 03:02:55;;;;;;;16.00;11.20;;;8.50;91.50;;;;;;4974649;28;20617;-88
2021/05/28 03:05:21;;;;;;;24.23;10.83;;;8.30;91.50;;;;;;4974652;28;20249;-88
2021/05/28 03:07:47;;;;;;;13.37;11.80;;;8.50;91.10;;;;;;4975216;28;20170;-85
2021/05/28 03:10:13;;;;;;;15.40;13.90;;;8.50;91.00;;;;;;4973826;28;20515;-87
2021/05/28 03:12:38;;;;;;;15.98;11.57;;;8.40;91.50;;;;;;4974852;28;20173;-87
2021/05/28 03:15:05;;;;;;;14.10;10.37;;;8.40;91.40;;;;;;4974770;28;20174;-87
2021/05/28 03:17:31;;;;;;;15.00;10.65;;;8.40;91.50;;;;;;4974813;28;20170;-86
2021/05/28 03:19:57;;;;;;;12.73;11.47;;;8.50;91.30;;;;;;4974713;28;20269;-87
2021/05/28 03:22:32;;;;;;;19.42;12.68;;;8.50;90.90;;;;;;4989807;28;20308;-85
2021/05/28 03:25:00;;;;;;;15.30;12.27;;;8.40;91.10;;;;;;4974961;28;20530;-88
2021/05/28 03:27:25;;;;;;;13.90;10.70;;;8.40;90.90;;;;;;4974099;28;20213;-86
2021/05/28 03:29:51;;;;;;;10.80;10.00;;;8.40;90.70;;;;;;4975062;28;20166;-87
2021/05/28 03:32:17;;;;;;;11.80;10.80;;;8.30;90.90;;;;;;4973727;28;20174;-87
2021/05/28 03:34:42;;;;;;;11.70;10.80;;;8.30;91.20;;;;;;4974759;28;20257;-86
2021/05/28 03:37:08;;;;;;;12.73;11.73;;;8.20;91.20;;;;;;4974614;28;20261;-86
2021/05/28 03:39:34;;;;;;;16.73;15.10;;;8.20;91.60;;;;;;4974894;28;20216;-86
2021/05/28 03:41:59;;;;;;;14.77;13.57;;;7.90;91.70;;;;;;4974920;28;20293;-86
2021/05/28 03:44:25;;;;;;;14.90;13.50;;;8.10;91.90;;;;;;4975360;28;20417;-87
2021/05/28 03:46:51;;;;;;;16.53;14.97;;;8.10;92.10;;;;;;4978649;28;20170;-86
2021/05/28 03:49:16;;;;;;;11.63;10.70;;;8.20;92.10;;;;;;4979221;28;20173;-87
2021/05/28 03:51:42;;;;;;;13.37;12.20;;;8.20;92.20;;;;;;4978673;28;20166;-87
2021/05/28 03:54:08;;;;;;;13.70;12.60;;;8.30;92.10;;;;;;4978060;28;20634;-87
2021/05/28 03:56:33;;;;;;;12.50;11.20;;;8.40;92.40;;;;;;4978477;28;20546;-87
2021/05/28 03:58:59;;;;;;;12.90;11.80;;;8.00;91.90;;;;;;4977725;28;20178;-86
2021/05/28 04:01:24;;;;;;;14.20;13.10;;;8.40;92.20;;;;;;4977920;28;20209;-87
2021/05/28 04:03:50;;;;;;;10.73;10.03;;;8.60;91.90;;;;;;4977979;28;20545;-86
2021/05/28 04:06:15;;;;;;;13.50;12.40;;;8.70;90.80;;;;;;4978240;28;20170;-87
2021/05/28 04:08:41;;;;;;;13.83;12.63;;;8.70;90.90;;;;;;4978569;28;20166;-88
2021/05/28 04:11:07;;;;;;;13.80;12.40;;;8.00;91.00;;;;;;4976816;28;20223;-87
2021/05/28 04:13:32;;;;;;;14.07;12.10;;;8.70;91.10;;;;;;4977938;28;20313;-88
2021/05/28 04:15:59;;;;;;;14.07;12.77;;;8.80;91.30;;;;;;4977953;28;20170;-88
2021/05/28 04:18:25;;;;;;;14.43;13.05;;;8.80;91.00;;;;;;4977860;28;20174;-86
2021/05/28 04:20:51;;;;;;;14.60;13.10;;;8.90;91.40;;;;;;4978189;28;20181;-87
2021/05/28 04:23:18;;;;;;;15.55;12.40;;;8.90;91.30;;;;;;4291830;28;10022475;-87
2021/05/28 04:25:44;;;;;;;14.70;13.30;;;8.90;91.50;;;;;;4981490;28;20220;-87
2021/05/28 04:28:10;;;;;;;18.40;13.13;;;9.00;91.40;;;;;;4991380;28;20221;-87
2021/05/28 04:30:35;;;;;;;18.27;13.90;;;9.10;90.80;;;;;;4992575;28;20424;-86
2021/05/28 04:33:01;;;;;;;19.40;17.23;;;9.10;90.20;;;;;;4999422;28;20200;-89
2021/05/28 04:35:26;;;;;;;15.97;14.17;;;9.10;90.50;;;;;;4961147;28;20186;-87
2021/05/28 04:37:52;;;;;;;17.63;15.43;;;9.10;90.70;;;;;;4959220;28;20233;-87
2021/05/28 04:40:19;;;;;;;19.90;15.53;;;9.10;91.20;;;;;;4976104;28;20185;-87
2021/05/28 04:42:45;;;;;;;19.63;15.60;;;9.00;91.40;;;;;;4975689;28;20224;-87
2021/05/28 04:45:11;;;;;;;14.50;13.00;;;10.70;91.80;;;;;;4975422;28;20630;-87
2021/05/28 04:47:36;;;;;;;17.63;15.83;;;9.30;91.20;;;;;;4975226;28;20188;-88
2021/05/28 04:50:02;;;;;;;16.60;14.23;;;10.00;90.60;;;;;;4981925;28;20556;-87
2021/05/28 04:52:28;;;;;;;17.00;12.93;;;9.40;91.10;;;;;;4993389;28;20181;-88
2021/05/28 04:54:53;;;;;;;21.83;14.47;;;9.50;90.50;;;;;;4994483;28;20516;-87
2021/05/28 04:57:20;;;;;;;18.50;14.30;;;9.50;90.90;;;;;;4993699;28;20177;-87
2021/05/28 04:59:46;;;;;;;16.77;13.75;;;9.90;90.80;;;;;;4993918;28;20166;-86
2021/05/28 05:02:12;;;;;;;21.33;15.20;;;9.50;90.60;;;;;;4994554;28;20219;-88
2021/05/28 05:04:37;;;;;;;24.23;19.83;;;9.10;90.90;;;;;;4980176;28;20181;-87
2021/05/28 05:07:03;;;;;;;22.57;17.37;;;8.80;90.20;;;;;;4976593;28;20205;-87
2021/05/28 05:09:29;;;;;;;28.43;18.37;;;10.20;90.80;;;;;;4979305;28;20629;-87
2021/05/28 05:11:56;;;;;;;31.13;18.03;;;9.50;91.00;;;;;;4997664;28;20181;-86
2021/05/28 05:14:21;;;;;;;27.20;19.58;;;9.60;91.10;;;;;;4997710;28;20162;-87
2021/05/28 05:16:47;;;;;;;31.20;18.60;;;9.60;91.10;;;;;;4978813;28;20675;-87
2021/05/28 05:19:13;;;;;;;33.70;20.77;;;10.60;91.10;;;;;;4992688;28;20169;-87
2021/05/28 05:21:39;;;;;;;29.50;19.10;;;9.80;91.10;;;;;;5000095;28;20212;-85
2021/05/28 05:24:05;;;;;;;36.72;21.88;;;9.90;90.60;;;;;;5006505;28;20910;-86
2021/05/28 05:26:31;;;;;;;33.87;20.60;;;10.00;89.70;;;;;;4998923;28;20170;-87
2021/05/28 05:28:56;;;;;;;33.47;22.17;;;10.00;90.30;;;;;;4991664;28;20472;-88
2021/05/28 05:31:22;;;;;;;35.17;22.20;;;10.10;90.40;;;;;;4997039;28;20633;-88
2021/05/28 05:33:48;;;;;;;41.33;23.43;;;12.00;91.30;;;;;;4994972;28;20352;-87
2021/05/28 05:36:13;;;;;;;33.17;21.10;;;;;;;;;;4997078;28;20637;-87
2021/05/28 05:38:39;;;;;;;34.87;21.97;;;10.30;88.80;;;;;;4997178;28;20180;-87
2021/05/28 05:41:05;;;;;;;35.90;22.60;;;10.40;89.20;;;;;;4996454;28;20452;-87
2021/05/28 05:43:30;;;;;;;36.53;23.77;;;10.40;88.50;;;;;;4996643;28;20173;-87
2021/05/28 05:45:56;;;;;;;40.20;22.40;;;10.50;88.20;;;;;;4999698;28;20162;-88
2021/05/28 05:48:22;;;;;;;33.93;22.47;;;10.80;88.40;;;;;;4648629;28;10000053;-87
2021/05/28 05:50:47;;;;;;;41.33;23.10;;;10.50;86.70;;;;;;4994477;28;20468;-87
2021/05/28 05:53:13;;;;;;;38.63;22.80;;;10.50;86.80;;;;;;4996272;28;20244;-85
2021/05/28 05:55:39;;;;;;;44.73;25.20;;;11.40;89.40;;;;;;4997069;28;20173;-88
2021/05/28 05:58:06;;;;;;;36.57;25.53;;;10.90;87.20;;;;;;4996479;28;20660;-87
2021/05/28 06:00:31;;;;;;;32.80;23.00;;;10.70;86.00;;;;;;4995715;28;20169;-87
2021/05/28 06:02:57;;;;;;;35.93;20.20;;;11.10;86.00;;;;;;4995102;28;20475;-86
2021/05/28 06:05:23;;;;;;;40.57;24.00;;;11.20;84.30;;;;;;4995209;28;20168;-87
2021/05/28 06:07:48;;;;;;;31.60;21.53;;;13.20;85.10;;;;;;4994710;28;20244;-87
2021/05/28 06:10:14;;;;;;;31.93;21.10;;;11.70;82.60;;;;;;4995957;28;20527;-85
2021/05/28 06:12:40;;;;;;;26.47;20.20;;;11.90;81.50;;;;;;4993448;28;20165;-87
2021/05/28 06:15:06;;;;;;;34.77;22.97;;;12.00;80.20;;;;;;4991802;28;20456;-88
2021/05/28 06:17:32;;;;;;;26.50;19.40;;;12.00;79.90;;;;;;4990771;28;20170;-85
2021/05/28 06:19:57;;;;;;;32.30;21.03;;;11.80;78.20;;;;;;4992787;28;20958;-87
2021/05/28 06:22:23;;;;;;;32.10;20.00;;;12.20;79.00;;;;;;4992628;28;20218;-87
2021/05/28 06:24:49;;;;;;;30.70;18.57;;;12.30;78.50;;;;;;4990563;28;20309;-86
2021/05/28 06:27:15;;;;;;;29.00;20.37;;;12.20;77.60;;;;;;4994150;28;20180;-88
2021/05/28 06:29:41;;;;;;;30.60;20.40;;;12.30;77.90;;;;;;4996077;28;20435;-88
2021/05/28 06:32:06;;;;;;;24.13;20.60;;;12.40;77.00;;;;;;4994766;28;20900;-88
2021/05/28 06:34:32;;;;;;;27.07;20.77;;;12.30;78.30;;;;;;4978313;28;20173;-88
2021/05/28 06:36:59;;;;;;;27.83;19.30;;;12.40;77.50;;;;;;4648631;28;10000042;-87
2021/05/28 06:39:25;;;;;;;26.57;19.80;;;12.60;77.10;;;;;;4960571;28;20179;-88
2021/05/28 06:41:50;;;;;;;28.40;19.97;;;12.60;75.90;;;;;;4973630;28;20562;-87
2021/05/28 06:44:16;;;;;;;22.23;18.57;;;13.10;75.80;;;;;;4973530;28;20177;-88
2021/05/28 06:46:41;;;;;;;21.83;16.40;;;13.50;74.30;;;;;;4972613;28;20631;-87
2021/05/28 06:49:07;;;;;;;23.63;19.00;;;13.90;71.10;;;;;;4972336;28;20172;-86
2021/05/28 06:51:32;;;;;;;22.60;17.20;;;14.20;68.90;;;;;;4955464;28;20174;-87
2021/05/28 06:53:58;;;;;;;24.20;19.07;;;14.40;68.00;;;;;;4972295;28;20228;-86
2021/05/28 06:56:24;;;;;;;18.10;16.17;;;14.50;66.80;;;;;;4975948;28;20530;-86
2021/05/28 06:58:50;;;;;;;21.47;16.43;;;14.70;65.40;;;;;;4975538;28;20649;-86
2021/05/28 07:01:16;;;;;;;20.60;17.47;;;14.60;65.70;;;;;;4975025;28;20201;-87
2021/05/28 07:03:42;;;;;;;18.50;16.50;;;14.50;65.70;;;;;;4975327;28;20460;-86
2021/05/28 07:06:09;;;;;;;23.90;17.30;;;14.50;65.90;;;;;;4964163;28;20516;-87
2021/05/28 07:08:34;;;;;;;21.73;17.23;;;14.10;67.30;;;;;;4986031;28;20818;-87
2021/05/28 07:11:00;;;;;;;20.60;17.53;;;14.00;68.30;;;;;;4994535;28;20507;-86
2021/05/28 07:13:26;;;;;;;20.90;16.10;;;14.20;69.00;;;;;;4977631;28;20220;-85
2021/05/28 07:15:52;;;;;;;19.27;16.60;;;14.10;69.40;;;;;;4976209;28;20169;-88
2021/05/28 07:18:18;;;;;;;18.00;16.03;;;14.30;69.60;;;;;;4632368;28;10000390;-88
2021/05/28 07:20:44;;;;;;;17.83;16.00;;;14.10;68.50;;;;;;4976442;28;20212;-86
2021/05/28 07:23:22;;;;;;;15.70;13.57;;;14.90;69.70;;;;;;5195188;23;20496;-87
2021/05/28 07:25:48;;;;;;;14.67;13.07;;;14.20;68.10;;;;;;5122404;23;20487;-87
2021/05/28 07:28:27;;;;;;;15.20;13.60;;;14.80;66.70;;;;;;5013055;28;20447;-87
2021/05/28 07:30:53;;;;;;;17.27;14.40;;;15.20;63.70;;;;;;5224092;23;20641;-87
2021/05/28 07:33:23;;;;;;;13.10;11.90;;;15.70;63.30;;;;;;5319771;23;20483;-88
2021/05/28 07:35:50;;;;;;;13.17;11.97;;;;;;;;;;5278735;23;20427;-89
2021/05/28 07:38:16;;;;;;;13.27;12.00;;;17.00;56.60;;;;;;5044461;23;20555;-87
2021/05/28 07:40:42;;;;;;;14.37;12.87;;;17.10;59.10;;;;;;5362664;23;20488;-88
2021/05/28 07:43:08;;;;;;;14.63;13.17;;;16.80;58.80;;;;;;4989091;28;20500;-88
2021/05/28 07:45:33;;;;;;;14.73;13.23;;;17.40;58.90;;;;;;5006216;28;20408;-89
2021/05/28 07:48:08;;;;;;;14.07;12.87;;;16.40;58.30;;;;;;4991520;28;20177;-88
2021/05/28 07:50:47;;;;;;;16.57;12.80;;;17.40;57.70;;;;;;5015009;28;20245;-87
2021/05/28 07:53:16;;;;;;;13.40;12.20;;;18.60;56.40;;;;;;5017222;28;20427;-84
2021/05/28 07:55:42;;;;;;;11.97;10.87;;;19.60;52.70;;;;;;4988343;28;20428;-88
2021/05/28 07:58:08;;;;;;;14.17;12.83;;;21.30;50.70;;;;;;4993268;28;20576;-85
2021/05/28 08:00:35;;;;;;;13.67;12.37;;;21.30;48.50;;;;;;4994045;28;20400;-85
2021/05/28 08:03:01;;;;;;;13.40;12.10;;;21.70;48.40;;;;;;4993249;28;20475;-86
2021/05/28 08:05:27;;;;;;;12.77;11.60;;;21.70;48.70;;;;;;4992787;28;20419;-84
2021/05/28 08:07:55;;;;;;;14.50;13.20;;;20.80;47.70;;;;;;4975611;28;20904;-85
2021/05/28 08:10:21;;;;;;;15.03;13.53;;;20.60;47.90;;;;;;4993267;28;20412;-86
2021/05/28 08:12:50;;;;;;;14.13;12.90;;;19.90;48.60;;;;;;4981171;28;20431;-87
2021/05/28 08:15:18;;;;;;;16.57;13.80;;;19.90;49.30;;;;;;5009937;28;20480;-86
2021/05/28 08:17:44;;;;;;;14.07;12.57;;;19.80;49.40;;;;;;4989334;28;20436;-90
2021/05/28 08:20:10;;;;;;;14.60;13.07;;;19.80;48.90;;;;;;4988322;28;20579;-86
2021/05/28 08:22:36;;;;;;;14.63;13.40;;;20.90;48.30;;;;;;5002250;28;20213;-89
2021/05/28 08:25:03;;;;;;;13.20;12.10;;;19.90;46.80;;;;;;4998688;28;20409;-89
2021/05/28 08:27:38;;;;;;;12.70;11.67;;;22.00;45.80;;;;;;5049212;23;20495;-90
2021/05/28 08:30:17;;;;;;;12.93;11.53;;;22.50;45.00;;;;;;5025105;28;20437;-92
2021/05/28 08:32:46;;;;;;;16.07;13.17;;;23.00;44.30;;;;;;5177486;23;20493;-89
2021/05/28 08:35:26;;;;;;;13.13;11.93;;;22.40;44.20;;;;;;5193151;23;20459;-91
2021/05/28 08:40:58;;;;;;;13.63;12.40;;;22.70;43.30;;;;;;5209133;23;20458;-87
2021/05/28 08:46:06;;;;;;;15.30;14.07;;;22.90;43.60;;;;;;3935148;23;20482;-88
2021/05/28 08:48:34;;;;;;;15.07;13.67;;;23.70;43.30;;;;;;5022313;28;20410;-91
2021/05/28 08:50:59;;;;;;;13.73;12.63;;;24.40;41.90;;;;;;5001225;28;20463;-91
2021/05/28 08:53:27;;;;;;;13.50;12.33;;;24.90;41.20;;;;;;5000675;28;20191;-88
2021/05/28 08:55:53;;;;;;;15.27;13.93;;;24.30;40.40;;;;;;5001839;28;20180;-88
2021/05/28 08:58:20;;;;;;;14.53;13.13;;;24.50;40.40;;;;;;5005710;28;20431;-87
2021/05/28 09:00:46;;;;;;;15.53;13.97;;;25.40;39.60;;;;;;5026459;28;20185;-88
2021/05/28 09:03:19;;;;;;;15.50;14.10;;;25.70;38.40;;;;;;5018560;28;20475;-89
2021/05/28 09:05:46;;;;;;;14.87;13.43;;;25.60;38.90;;;;;;5012950;28;20416;-90
2021/05/28 09:08:12;;;;;;;16.07;14.43;;;25.70;37.40;;;;;;5020618;28;20435;-90
2021/05/28 09:10:39;;;;;;;13.67;12.43;;;25.90;37.10;;;;;;4992741;28;20832;-90
2021/05/28 09:13:19;;;;;;;15.20;13.80;;;25.70;36.60;;;;;;4987302;28;20173;-90
2021/05/28 09:16:05;;;;;;;11.97;10.70;;;26.00;36.40;;;;;;5005303;28;20412;-91
2021/05/28 09:18:48;;;;;;;11.53;10.63;;;25.90;35.30;;;;;;5002861;28;20404;-90
2021/05/28 09:21:23;;;;;;;14.43;13.13;;;26.20;35.10;;;;;;4311410;28;10000718;-89
2021/05/28 09:23:52;;;;;;;16.40;15.00;;;26.70;34.30;;;;;;5005577;28;20201;-89
2021/05/28 09:26:20;;;;;;;16.90;15.30;;;26.30;35.00;;;;;;5000246;28;20416;-90
2021/05/28 09:28:50;;;;;;;16.10;14.50;;;26.70;35.70;;;;;;4997599;28;20420;-91
2021/05/28 09:31:18;;;;;;;14.90;13.60;;;27.60;34.30;;;;;;4996732;28;20484;-87
2021/05/28 09:33:51;;;;;;;17.23;15.73;;;26.60;34.20;;;;;;4997242;28;20448;-90
2021/05/28 09:36:22;;;;;;;14.87;13.40;;;25.90;35.10;;;;;;4997206;28;20448;-87
2021/05/28 09:39:00;;;;;;;13.67;12.30;;;26.30;34.20;;;;;;4996015;28;20480;-90
2021/05/28 09:41:39;;;;;;;13.43;12.33;;;26.40;33.50;;;;;;4979394;28;20499;-90
2021/05/28 09:44:13;;;;;;;17.23;15.47;;;26.40;33.70;;;;;;4982677;28;20430;-91
2021/05/28 09:47:09;;;;;;;30.27;26.97;;;27.10;33.60;;;;;;4980431;28;20464;-89
2021/05/28 09:49:40;;;;;;;15.43;14.03;;;26.90;33.50;;;;;;4976657;28;20427;-91
2021/05/28 09:52:21;;;;;;;15.07;13.67;;;27.50;32.70;;;;;;4985062;28;20420;-90
2021/05/28 09:54:57;;;;;;;13.50;12.30;;;27.60;31.90;;;;;;4997379;28;20423;-91
2021/05/28 09:57:28;;;;;;;14.00;12.77;;;27.30;32.30;;;;;;4979117;28;20755;-90
2021/05/28 09:59:54;;;;;;;16.57;14.83;;;27.80;32.00;;;;;;4997644;28;20912;-91
2021/05/28 10:02:25;;;;;;;16.07;13.90;;;27.60;32.40;;;;;;4978841;28;20483;-91
2021/05/28 10:05:02;;;;;;;16.10;14.40;;;27.90;31.60;;;;;;4983381;28;20201;-89
2021/05/28 10:07:32;;;;;;;15.63;13.97;;;27.40;30.80;;;;;;4988905;28;20444;-88
2021/05/28 10:09:58;;;;;;;13.93;12.83;;;27.20;30.60;;;;;;4968629;28;20425;-94
2021/05/28 10:12:25;;;;;;;16.77;13.60;;;27.20;31.50;;;;;;4965832;28;20433;-88
2021/05/28 10:14:52;;;;;;;15.70;14.10;;;28.40;31.90;;;;;;4975674;28;20567;-88
2021/05/28 10:17:25;;;;;;;14.70;13.23;;;27.50;31.10;;;;;;4984212;28;20417;-90
2021/05/28 10:19:51;;;;;;;18.67;16.70;;;28.50;30.90;;;;;;4989572;28;20447;-84
2021/05/28 10:22:18;;;;;;;19.50;17.50;;;28.20;30.60;;;;;;4993465;28;20423;-86
2021/05/28 10:24:46;;;;;;;20.57;18.63;;;28.80;30.80;;;;;;5024441;28;20168;-91
2021/05/28 10:27:23;;;;;;;20.50;18.50;;;28.40;30.40;;;;;;5019879;28;20455;-89
2021/05/28 10:29:53;;;;;;;18.50;16.70;;;28.40;29.90;;;;;;5014948;28;20763;-88
2021/05/28 10:32:19;;;;;;;19.53;17.73;;;30.10;30.00;;;;;;5015114;28;20467;-90
2021/05/28 10:35:09;;;;;;;19.03;17.17;;;30.40;29.70;;;;;;5012154;28;20412;-88
2021/05/28 10:37:36;;;;;;;18.13;16.40;;;30.60;28.70;;;;;;4981763;28;20185;-90
2021/05/28 10:40:21;;;;;;;21.53;19.00;;;31.10;29.00;;;;;;4978315;28;20412;-86
2021/05/28 10:43:02;;;;;;;20.80;18.57;;;30.20;29.20;;;;;;4997875;28;20512;-89
2021/05/28 10:46:03;;;;;;;21.53;19.33;;;28.70;29.60;;;;;;4997840;28;20519;-89
2021/05/28 10:48:40;;;;;;;20.53;15.90;;;27.30;29.60;;;;;;4997919;28;20421;-88
2021/05/28 10:51:07;;;;;;;20.87;17.77;;;25.60;31.30;;;;;;4997088;28;20462;-89
2021/05/28 10:53:34;;;;;;;37.90;31.43;;;26.00;32.40;;;;;;4998559;28;20416;-88
2021/05/28 10:56:02;;;;;;;35.83;27.57;;;24.60;32.70;;;;;;4994868;28;20464;-87
2021/05/28 10:59:17;;;;;;;12.30;11.10;;;24.80;32.10;;;;;;4998488;28;20421;-88
2021/05/28 11:01:47;;;;;;;13.33;12.17;;;25.40;31.10;;;;;;4920003;29;20818;-89
2021/05/28 11:04:21;;;;;;;14.07;12.57;;;26.20;31.00;;;;;;4974930;28;20478;-89
2021/05/28 11:07:03;;;;;;;18.90;16.90;;;26.70;30.90;;;;;;4961410;28;20417;-88
2021/05/28 11:09:58;;;;;;;11.10;9.60;;;27.60;30.10;;;;;;4977790;28;20416;-89
2021/05/28 11:12:27;;;;;;;7.83;7.10;;;27.40;28.50;;;;;;4956066;28;20461;-86
2021/05/28 11:15:08;;;;;;;9.97;9.07;;;26.30;28.40;;;;;;4964488;28;20426;-88
2021/05/28 11:18:19;;;;;;;9.47;8.70;;;26.00;29.70;;;;;;4972305;28;20433;-89
2021/05/28 11:20:48;;;;;;;8.90;8.20;;;26.00;29.70;;;;;;5095844;23;20477;-88
2021/05/28 11:23:22;;;;;;;8.57;7.93;;;26.60;29.30;;;;;;5050255;23;20605;-90
2021/05/28 11:25:56;;;;;;;9.90;9.00;;;27.30;29.40;;;;;;5031697;28;20496;-89
2021/05/28 11:31:14;;;;;;;12.33;9.23;;;27.20;29.00;;;;;;5253997;23;20452;-89
2021/05/28 11:33:44;;;;;;;10.37;8.83;;;27.50;29.30;;;;;;5116740;23;20487;-85
2021/05/28 11:39:34;;;;;;;10.83;9.73;;;27.60;29.20;;;;;;5123957;23;20490;-90
2021/05/28 11:42:03;;;;;;;10.10;9.10;;;28.00;28.90;;;;;;5016699;28;20435;-91
2021/05/28 11:44:36;;;;;;;8.20;7.63;;;27.40;28.30;;;;;;5015690;28;20451;-94
2021/05/28 11:47:26;;;;;;;8.97;8.27;;;26.10;28.90;;;;;;5031992;28;20511;-89
2021/05/28 11:50:06;;;;;;;9.47;8.63;;;24.80;30.00;;;;;;4997684;28;20424;-89
2021/05/28 11:52:31;;;;;;;8.47;7.77;;;25.80;29.60;;;;;;4996979;28;20463;-87
2021/05/28 11:55:10;;;;;;;18.93;15.53;;;26.50;28.70;;;;;;5009152;28;20732;-85
2021/05/28 11:57:37;;;;;;;9.10;8.07;;;27.90;28.40;;;;;;4994625;28;20751;-86
2021/05/28 12:00:10;;;;;;;8.67;8.07;;;28.40;28.20;;;;;;4999230;28;20416;-86
2021/05/28 12:02:44;;;;;;;9.50;8.80;;;29.40;27.50;;;;;;5005192;28;20405;-89
2021/05/28 12:07:47;;;;;;;9.20;8.30;;;30.20;27.30;;;;;;5000358;28;20496;-91
2021/05/28 12:10:30;;;;;;;9.30;8.40;;;30.40;27.20;;;;;;5005263;28;20416;-90
2021/05/28 12:13:14;;;;;;;11.77;10.70;;;30.20;27.10;;;;;;5004374;28;20794;-92
2021/05/28 12:15:41;;;;;;;9.70;8.90;;;29.50;27.20;;;;;;5002053;28;20412;-90
2021/05/28 12:18:14;;;;;;;9.80;8.87;;;29.70;26.70;;;;;;4994787;28;20436;-91
2021/05/28 12:20:41;;;;;;;9.17;8.10;;;30.00;27.00;;;;;;4667862;28;10000387;-91
2021/05/28 12:23:27;;;;;;;7.70;7.20;;;30.10;26.70;;;;;;5008362;28;20296;-90
2021/05/28 12:26:01;;;;;;;8.47;7.87;;;30.20;26.70;;;;;;5000489;28;20493;-90
2021/05/28 12:28:39;;;;;;;7.70;7.10;;;30.20;26.70;;;;;;5001609;28;20470;-89
2021/05/28 12:31:11;;;;;;;9.27;8.47;;;29.40;26.80;;;;;;5001231;28;20424;-89
2021/05/28 12:33:39;;;;;;;9.47;8.67;;;29.10;27.40;;;;;;5001855;28;20634;-88
2021/05/28 12:36:07;;;;;;;10.00;9.10;;;28.10;27.70;;;;;;4999730;28;20420;-89
2021/05/28 12:38:41;;;;;;;7.63;7.07;;;27.80;28.30;;;;;;4999447;28;20438;-91
2021/05/28 12:41:09;;;;;;;8.53;7.83;;;27.70;27.70;;;;;;4998546;28;20447;-88
2021/05/28 12:43:37;;;;;;;7.53;7.00;;;28.30;27.60;;;;;;4984725;28;20436;-91
2021/05/28 12:46:03;;;;;;;10.67;9.73;;;28.20;27.20;;;;;;5004270;28;20413;-89
2021/05/28 12:48:42;;;;;;;7.60;7.00;;;27.40;28.00;;;;;;5002047;28;20428;-86
2021/05/28 12:51:09;;;;;;;7.87;7.30;;;28.00;27.20;;;;;;5003339;28;20420;-90
2021/05/28 12:53:44;;;;;;;9.73;8.73;;;28.00;27.50;;;;;;4992976;28;20478;-90